Time;durP1;ratioP1;P1;durP2;ratioP2;P2;SDS_P1;SDS_P2;PMS_P1;PMS_P2;Temp;Humidity;BMP_temperature;BMP_pressure;BME280_temperature;BME280_humidity;BME280_pressure;Samples;Min_cycle;Max_cycle;Signal;HPM_P1;HPM_P2
2022/08/03 00:01:06;;;;;;;3.72;3.40;;;;;;;21.87;59.96;100812.03;5035029;28;20218;-84
2022/08/03 00:03:33;;;;;;;4.22;3.00;;;;;;;21.83;60.06;100803.41;5029764;28;20209;-84
2022/08/03 00:05:59;;;;;;;4.03;3.13;;;;;;;21.80;60.35;100809.16;5035296;28;20209;-84
2022/08/03 00:08:26;;;;;;;4.63;3.50;;;;;;;21.76;60.31;100799.66;5028772;28;20429;-84
2022/08/03 00:10:53;;;;;;;4.10;3.80;;;;;;;21.74;60.50;100812.53;5035037;28;20248;-84
2022/08/03 00:13:19;;;;;;;3.80;3.50;;;;;;;21.70;60.54;100801.16;5035015;28;20208;-84
2022/08/03 00:15:47;;;;;;;3.58;3.30;;;;;;;21.68;60.65;100802.34;5035906;28;20736;-84
2022/08/03 00:18:14;;;;;;;3.65;3.35;;;;;;;21.64;60.68;100791.00;5034681;28;20664;-84
2022/08/03 00:20:40;;;;;;;3.60;3.30;;;;;;;21.61;60.94;100799.47;5034188;28;20213;-85
2022/08/03 00:23:07;;;;;;;3.40;3.10;;;;;;;21.59;60.91;100795.22;5034927;28;20574;-84
2022/08/03 00:25:35;;;;;;;3.25;2.95;;;;;;;21.54;61.17;100792.13;5035508;28;20209;-84
2022/08/03 00:28:02;;;;;;;3.83;3.35;;;;;;;21.50;61.41;100799.75;5029139;28;20230;-84
2022/08/03 00:30:29;;;;;;;3.63;3.33;;;;;;;21.47;61.62;100798.22;5031528;28;20209;-86
2022/08/03 00:32:57;;;;;;;3.70;3.40;;;;;;;21.44;61.52;100800.41;5034980;28;20226;-84
2022/08/03 00:35:24;;;;;;;3.80;3.40;;;;;;;21.41;62.05;100793.47;5033132;28;20206;-84
2022/08/03 00:37:51;;;;;;;4.55;4.15;;;;;;;21.39;61.89;100792.78;5034827;28;20210;-84
2022/08/03 00:40:19;;;;;;;4.30;3.90;;;;;;;21.36;62.03;100798.50;5035067;28;20214;-86
2022/08/03 00:42:52;;;;;;;4.20;3.77;;;;;;;21.32;61.96;100801.69;5032140;28;20233;-85
2022/08/03 00:45:20;;;;;;;3.50;3.20;;;;;;;21.25;62.18;100792.53;5034823;28;20284;-84
2022/08/03 00:47:46;;;;;;;4.13;3.77;;;;;;;21.19;62.42;100793.16;5034519;28;20213;-84
2022/08/03 00:50:15;;;;;;;4.17;3.77;;;;;;;21.13;62.34;100794.66;5035041;28;20251;-85
2022/08/03 00:52:41;;;;;;;3.80;3.50;;;;;;;21.09;62.33;100787.88;5033353;28;20231;-84
2022/08/03 00:55:10;;;;;;;4.63;3.87;;;;;;;21.04;62.54;100785.63;5031552;28;20205;-86
2022/08/03 00:57:37;;;;;;;4.60;4.20;;;;;;;21.03;62.75;100791.22;5028788;28;20320;-84
2022/08/03 01:00:05;;;;;;;3.90;3.60;;;;;;;20.99;62.74;100796.09;5033640;28;20210;-84
2022/08/03 01:02:32;;;;;;;3.77;3.47;;;;;;;20.97;62.87;100797.25;5034599;28;20682;-84
2022/08/03 01:04:59;;;;;;;4.37;3.97;;;;;;;20.94;63.00;100792.19;5034503;28;20266;-85
2022/08/03 01:07:40;;;;;;;4.27;3.87;;;;;;;20.91;63.11;100789.81;5028427;28;20212;-85
2022/08/03 01:10:15;;;;;;;4.00;3.70;;;;;;;20.91;63.03;100795.22;5030919;28;20209;-84
2022/08/03 01:12:52;;;;;;;4.20;3.80;;;;;;;20.89;63.19;100787.25;5029766;28;20232;-85
2022/08/03 01:15:25;;;;;;;4.07;3.57;;;;;;;20.89;63.11;100787.25;5022296;28;20204;-84
2022/08/03 01:17:57;;;;;;;4.23;3.80;;;;;;;20.87;63.40;100791.97;5034005;28;20217;-84
2022/08/03 01:20:26;;;;;;;3.70;3.40;;;;;;;20.84;63.35;100784.16;5034236;28;22172;-84
2022/08/03 01:23:30;;;;;;;4.10;3.70;;;;;;;20.81;63.62;100787.19;5033715;28;20239;-84
2022/08/03 01:26:13;;;;;;;4.10;3.80;;;;;;;20.77;63.66;100791.25;5033891;28;20210;-84
2022/08/03 01:28:58;;;;;;;4.37;3.97;;;;;;;20.72;63.92;100782.75;5033500;28;20263;-85
2022/08/03 01:31:32;;;;;;;7.60;4.57;;;;;;;20.65;64.03;100785.22;5033943;28;20415;-84
2022/08/03 01:34:02;;;;;;;4.17;3.77;;;;;;;20.59;64.07;100780.47;5031661;28;20207;-84
2022/08/03 01:36:35;;;;;;;4.87;4.30;;;;;;;20.55;64.25;100786.34;5034737;28;20661;-85
2022/08/03 01:39:08;;;;;;;4.90;4.27;;;;;;;20.49;64.63;100786.97;5029514;28;20209;-85
2022/08/03 01:41:39;;;;;;;4.40;4.00;;;;;;;20.41;64.93;100783.22;5032291;28;20221;-84
2022/08/03 01:44:09;;;;;;;5.07;4.17;;;;;;;20.38;65.09;100785.38;5033657;28;20205;-85
2022/08/03 01:46:39;;;;;;;5.07;4.57;;;;;;;20.34;65.47;100786.66;5032105;28;20207;-84
2022/08/03 01:49:08;;;;;;;4.70;4.30;;;;;;;20.31;65.32;100781.56;5033169;28;20229;-84
2022/08/03 01:51:36;;;;;;;4.87;4.40;;;;;;;20.28;65.42;100782.72;5026748;28;20221;-84
2022/08/03 01:54:04;;;;;;;6.00;3.60;;;;;;;20.24;65.77;100777.81;5036933;28;20589;-84
2022/08/03 01:56:32;;;;;;;4.00;3.70;;;;;;;20.21;65.66;100780.81;5035791;28;20441;-84
2022/08/03 01:59:02;;;;;;;4.30;4.00;;;;;;;20.18;66.06;100783.81;5034124;28;20205;-84
2022/08/03 02:01:31;;;;;;;6.50;4.17;;;;;;;20.15;66.10;100781.44;5030010;28;20258;-85
2022/08/03 02:04:00;;;;;;;4.13;3.70;;;;;;;20.11;65.94;100783.59;5027562;28;20220;-84
2022/08/03 02:06:29;;;;;;;4.87;4.03;;;;;;;20.07;66.29;100779.47;5031209;28;20587;-84
2022/08/03 02:08:58;;;;;;;4.00;3.70;;;;;;;20.03;66.21;100781.69;5032450;28;20231;-85
2022/08/03 02:11:24;;;;;;;7.97;4.13;;;;;;;20.01;66.41;100785.53;5031657;28;20236;-84
2022/08/03 02:13:51;;;;;;;3.73;3.43;;;;;;;19.97;66.63;100779.56;5033091;28;20571;-84
2022/08/03 02:16:19;;;;;;;4.40;4.10;;;;;;;19.93;66.50;100775.47;5025710;28;20595;-84
2022/08/03 02:18:48;;;;;;;4.37;3.97;;;;;;;19.89;66.56;100787.59;5032827;28;20334;-85
2022/08/03 02:21:16;;;;;;;3.87;3.40;;;;;;;19.88;66.53;100785.06;5032802;28;20231;-84
2022/08/03 02:23:42;;;;;;;4.50;4.10;;;;;;;19.83;66.63;100781.97;5031976;28;20672;-85
2022/08/03 02:26:17;;;;;;;4.50;4.10;;;;;;;19.81;66.78;100779.41;5029485;28;20652;-85
2022/08/03 02:28:48;;;;;;;4.67;4.23;;;;;;;19.78;66.81;100774.31;5025717;28;20232;-84
2022/08/03 02:31:19;;;;;;;4.27;3.87;;;;;;;19.75;66.95;100771.91;5033445;28;20730;-84
2022/08/03 02:33:50;;;;;;;4.27;3.87;;;;;;;19.72;67.30;100770.38;5025919;28;20611;-85
2022/08/03 02:36:21;;;;;;;4.37;3.97;;;;;;;19.70;67.22;100771.53;5032122;28;20213;-84
2022/08/03 02:38:53;;;;;;;5.03;4.13;;;;;;;19.68;67.28;100776.25;5026842;28;20209;-84
2022/08/03 02:41:24;;;;;;;5.47;4.03;;;;;;;19.63;67.29;100763.19;5032247;28;20233;-84
2022/08/03 02:43:55;;;;;;;4.93;4.23;;;;;;;19.61;67.65;100764.34;5032646;28;20210;-84
2022/08/03 02:46:25;;;;;;;4.37;4.03;;;;;;;19.58;67.75;100767.34;5028138;28;20206;-84
2022/08/03 02:48:55;;;;;;;4.90;3.80;;;;;;;19.53;68.01;100758.84;5030943;28;20217;-84
2022/08/03 02:51:24;;;;;;;4.83;4.00;;;;;;;19.50;67.80;100761.88;5029517;28;20576;-84
2022/08/03 02:53:53;;;;;;;4.40;4.00;;;;;;;19.47;68.01;100762.13;5024956;28;20323;-84
2022/08/03 02:56:21;;;;;;;4.50;4.10;;;;;;;19.43;68.12;100765.13;5028942;28;20241;-84
2022/08/03 02:58:49;;;;;;;6.10;4.73;;;;;;;19.40;67.94;100765.44;5026865;28;20309;-85
2022/08/03 03:01:19;;;;;;;4.70;4.10;;;;;;;19.37;68.61;100764.88;5031000;28;20279;-85
2022/08/03 03:03:45;;;;;;;3.97;3.67;;;;;;;19.35;68.58;100762.31;5026566;28;20208;-85
2022/08/03 03:06:13;;;;;;;9.77;4.13;;;;;;;19.33;69.01;100758.94;5031708;28;20212;-85
2022/08/03 03:08:41;;;;;;;4.60;3.97;;;;;;;19.34;68.47;100760.66;5032304;28;20233;-86
2022/08/03 03:11:08;;;;;;;6.37;4.57;;;;;;;19.33;68.59;100761.66;5032292;28;20240;-85
2022/08/03 03:13:36;;;;;;;4.27;3.87;;;;;;;19.31;68.55;100758.25;5031932;28;20212;-85
2022/08/03 03:16:05;;;;;;;6.33;3.83;;;;;;;19.30;68.74;100759.25;5031038;28;20208;-85
2022/08/03 03:18:34;;;;;;;5.03;4.03;;;;;;;19.29;68.65;100757.53;5031616;28;20657;-85
2022/08/03 03:21:02;;;;;;;4.23;3.93;;;;;;;19.27;68.82;100761.38;5031709;28;20228;-85
2022/08/03 03:23:30;;;;;;;4.40;3.93;;;;;;;19.26;68.92;100757.84;5031089;28;20683;-85
2022/08/03 03:26:01;;;;;;;4.30;3.90;;;;;;;19.23;69.04;100763.53;5028346;28;20559;-85
2022/08/03 03:28:28;;;;;;;4.87;4.37;;;;;;;19.22;68.76;100767.22;5033527;28;20303;-85
2022/08/03 03:30:54;;;;;;;3.90;3.60;;;;;;;19.18;68.99;100757.72;5033856;28;20690;-85
2022/08/03 03:33:22;;;;;;;4.13;3.73;;;;;;;19.16;69.28;100765.16;5033694;28;20211;-85
2022/08/03 03:35:50;;;;;;;4.03;3.73;;;;;;;19.13;69.18;100756.50;5034760;28;20588;-85
2022/08/03 03:38:17;;;;;;;5.90;4.17;;;;;;;19.08;69.05;100762.34;5032611;28;20236;-84
2022/08/03 03:40:44;;;;;;;8.30;4.40;;;;;;;19.05;69.18;100760.78;5031959;28;20287;-86
2022/08/03 03:43:12;;;;;;;4.63;4.23;;;;;;;19.03;69.45;100764.63;5031664;28;20213;-85
2022/08/03 03:45:41;;;;;;;5.27;4.70;;;;;;;19.00;69.27;100764.91;5031911;28;20211;-85
2022/08/03 03:48:07;;;;;;;4.57;4.23;;;;;;;18.98;69.38;100775.03;5031864;28;20291;-85
2022/08/03 03:50:35;;;;;;;5.10;4.50;;;;;;;18.95;69.32;100765.38;5031731;28;20225;-85
2022/08/03 03:53:03;;;;;;;4.87;4.37;;;;;;;18.93;69.30;100764.69;5033457;28;21007;-85
2022/08/03 03:55:30;;;;;;;8.60;5.10;;;;;;;18.93;69.64;100771.91;5033232;28;20201;-85
2022/08/03 03:57:56;;;;;;;4.57;4.27;;;;;;;18.90;69.71;100767.66;5032685;28;20223;-86
2022/08/03 04:00:24;;;;;;;5.47;4.50;;;;;;;18.90;69.60;100773.06;5033347;28;20210;-85
2022/08/03 04:02:51;;;;;;;5.07;4.40;;;;;;;18.88;69.57;100766.09;5030388;28;20230;-85
2022/08/03 04:10:59;;;;;;;4.93;4.40;;;;;;;18.84;69.74;100768.25;5029956;28;20256;-85
2022/08/03 04:13:29;;;;;;;5.27;4.77;;;;;;;18.84;69.81;100764.69;5031833;28;20205;-85
2022/08/03 04:15:59;;;;;;;4.73;4.33;;;;;;;18.83;69.81;100766.53;5028733;28;20230;-85
2022/08/03 04:18:29;;;;;;;4.70;4.30;;;;;;;18.83;69.76;100768.38;5030240;28;20207;-85
2022/08/03 04:21:00;;;;;;;5.37;4.77;;;;;;;18.82;70.12;100772.09;5031036;28;20202;-85
2022/08/03 04:23:30;;;;;;;5.43;4.93;;;;;;;18.81;70.51;100773.94;5032306;28;20213;-85
2022/08/03 04:25:59;;;;;;;4.73;4.23;;;;;;;18.81;70.50;100773.94;5032278;28;20220;-85
2022/08/03 04:28:27;;;;;;;5.17;4.77;;;;;;;18.82;70.38;100774.78;5031216;28;20215;-85
2022/08/03 04:30:56;;;;;;;4.97;4.57;;;;;;;18.82;70.44;100774.78;5031898;28;20592;-85
2022/08/03 04:33:27;;;;;;;4.37;3.97;;;;;;;18.81;70.58;100778.50;5033196;28;20710;-85
2022/08/03 04:35:57;;;;;;;5.57;4.90;;;;;;;18.80;70.97;100784.91;5029369;28;20652;-85
2022/08/03 04:38:26;;;;;;;4.43;4.03;;;;;;;18.78;71.47;100787.75;5030226;28;20207;-85
2022/08/03 04:40:54;;;;;;;5.07;4.57;;;;;;;18.77;71.93;100782.50;5033160;28;20259;-85
2022/08/03 04:43:22;;;;;;;5.30;4.80;;;;;;;18.78;72.12;100793.13;5035215;28;20210;-85
2022/08/03 04:45:51;;;;;;;6.83;4.20;;;;;;;18.78;72.17;100784.19;5033056;28;20212;-85
2022/08/03 04:48:18;;;;;;;5.23;4.73;;;;;;;18.77;72.38;100782.50;5029928;28;20581;-85
2022/08/03 04:50:47;;;;;;;5.17;4.37;;;;;;;18.78;72.73;100784.19;5033536;28;20224;-85
2022/08/03 04:53:14;;;;;;;9.80;5.07;;;;;;;18.80;72.90;100785.75;5030518;28;20212;-85
2022/08/03 04:55:40;;;;;;;4.90;4.10;;;;;;;18.81;72.83;100781.22;5032881;28;20711;-86
2022/08/03 04:58:07;;;;;;;4.50;4.20;;;;;;;18.84;73.47;100778.19;5032595;28;20233;-85
2022/08/03 05:00:34;;;;;;;4.40;3.97;;;;;;;18.86;73.54;100793.25;5031449;28;20201;-85
2022/08/03 05:03:00;;;;;;;5.40;3.90;;;;;;;18.88;73.40;100793.94;5034318;28;20235;-85
2022/08/03 05:05:27;;;;;;;4.00;3.70;;;;;;;18.91;73.36;100793.66;5030382;28;20205;-85
2022/08/03 05:07:55;;;;;;;7.73;3.87;;;;;;;18.92;73.51;100792.66;5036090;28;20212;-86
2022/08/03 05:10:21;;;;;;;4.23;3.83;;;;;;;18.98;73.47;100800.19;5026319;28;20283;-85
2022/08/03 05:12:50;;;;;;;4.17;3.87;;;;;;;19.03;73.62;100799.72;5029051;28;20228;-85
2022/08/03 05:15:17;;;;;;;4.50;4.10;;;;;;;19.07;73.40;100803.81;5032327;28;20232;-85
2022/08/03 05:17:44;;;;;;;4.80;4.33;;;;;;;19.11;73.46;100804.38;5034799;28;20299;-85
2022/08/03 05:20:11;;;;;;;5.20;4.30;;;;;;;19.13;73.09;100799.69;5033740;28;20691;-86
2022/08/03 05:22:38;;;;;;;4.33;4.03;;;;;;;19.17;73.19;100801.09;5033917;28;20316;-85
2022/08/03 05:25:06;;;;;;;4.93;4.17;;;;;;;19.19;73.09;100796.38;5034182;28;20211;-85
2022/08/03 05:27:33;;;;;;;5.00;4.60;;;;;;;19.23;72.97;100795.94;5033163;28;20212;-86
2022/08/03 05:29:59;;;;;;;5.10;4.10;;;;;;;19.29;72.88;100800.75;5033651;28;20247;-85
2022/08/03 05:32:26;;;;;;;4.40;4.07;;;;;;;19.34;73.03;100798.47;5028206;28;20251;-85
2022/08/03 05:34:52;;;;;;;5.27;3.63;;;;;;;19.40;72.93;100792.44;5029841;28;20708;-85
2022/08/03 05:37:19;;;;;;;4.37;4.07;;;;;;;19.46;72.91;100788.28;5033251;28;20217;-85
2022/08/03 05:39:45;;;;;;;6.13;4.40;;;;;;;19.51;72.96;100793.28;5026393;28;20205;-85
2022/08/03 05:42:15;;;;;;;4.37;3.97;;;;;;;19.59;73.02;100796.06;5029758;28;20221;-86
2022/08/03 05:44:41;;;;;;;4.23;3.83;;;;;;;19.66;73.04;100789.06;5031378;28;20209;-85
2022/08/03 05:47:08;;;;;;;4.30;4.00;;;;;;;19.74;72.61;100783.72;5029792;28;20247;-86
2022/08/03 05:49:34;;;;;;;4.93;3.47;;;;;;;19.82;72.38;100791.09;5033593;28;20225;-85
2022/08/03 05:52:01;;;;;;;7.20;3.90;;;;;;;19.91;72.20;100780.19;5035626;28;20225;-85
2022/08/03 05:54:28;;;;;;;3.23;2.93;;;;;;;20.01;71.92;100782.81;5037739;28;20205;-85
2022/08/03 05:56:54;;;;;;;5.63;3.43;;;;;;;20.12;71.55;100782.59;5034589;28;20215;-86
2022/08/03 05:59:22;;;;;;;4.63;3.60;;;;;;;20.24;71.17;100781.34;5035021;28;20206;-85
2022/08/03 06:01:48;;;;;;;5.10;3.03;;;;;;;20.36;70.48;100780.13;5029829;28;20229;-85
2022/08/03 06:04:15;;;;;;;3.40;3.10;;;;;;;20.50;69.92;100786.81;5029062;28;20649;-85
2022/08/03 06:06:42;;;;;;;4.10;2.90;;;;;;;20.63;68.68;100784.53;5024280;28;20245;-86
2022/08/03 06:09:09;;;;;;;4.03;2.73;;;;;;;20.76;68.04;100787.69;5030185;28;20230;-86
2022/08/03 06:11:36;;;;;;;3.07;2.63;;;;;;;20.92;67.71;100788.78;5025471;28;20243;-85
2022/08/03 06:14:02;;;;;;;3.00;2.70;;;;;;;21.07;66.97;100782.63;5027604;28;20229;-85
2022/08/03 06:16:30;;;;;;;3.73;3.27;;;;;;;21.23;66.44;100787.28;5022775;28;20212;-85
2022/08/03 06:18:57;;;;;;;2.80;2.60;;;;;;;21.40;66.00;100791.75;5029068;28;20209;-85
2022/08/03 06:21:23;;;;;;;3.05;2.72;;;;;;;21.60;65.51;100786.06;5031261;28;20281;-86
2022/08/03 06:23:50;;;;;;;3.13;2.80;;;;;;;21.78;65.15;100789.50;5024116;28;20219;-86
2022/08/03 06:26:16;;;;;;;4.05;3.08;;;;;;;21.96;64.36;100786.66;5024451;28;20212;-86
2022/08/03 06:28:44;;;;;;;3.07;2.53;;;;;;;22.11;64.27;100777.72;5029913;28;20221;-84
2022/08/03 06:31:11;;;;;;;2.85;2.47;;;;;;;22.29;63.65;100777.56;5039316;28;20686;-84
2022/08/03 06:33:39;;;;;;;2.70;2.50;;;;;;;22.45;62.88;100782.13;5048127;28;20307;-85
2022/08/03 06:36:06;;;;;;;5.35;2.75;;;;;;;22.61;62.69;100786.69;5040023;28;20293;-83
2022/08/03 06:38:33;;;;;;;2.90;2.60;;;;;;;22.75;62.22;100777.84;5041681;28;20727;-85
2022/08/03 06:40:59;;;;;;;2.80;2.60;;;;;;;22.94;61.98;100791.06;5038411;28;20236;-86
2022/08/03 06:43:26;;;;;;;2.30;2.10;;;;;;;23.11;61.48;100789.16;5049356;28;20202;-84
2022/08/03 06:45:52;;;;;;;2.83;2.50;;;;;;;23.29;60.22;100789.75;5045820;28;20206;-85
2022/08/03 06:48:19;;;;;;;3.83;2.03;;;;;;;23.48;58.62;100797.47;5050522;28;20212;-84
2022/08/03 06:50:47;;;;;;;4.10;2.33;;;;;;;23.65;57.32;100795.56;5053341;28;20233;-84
2022/08/03 06:53:13;;;;;;;3.85;2.10;;;;;;;23.83;55.92;100795.28;5049602;28;20234;-84
2022/08/03 06:55:40;;;;;;;2.05;1.95;;;;;;;24.01;55.10;100795.84;5049283;28;20293;-85
2022/08/03 06:58:06;;;;;;;3.50;2.30;;;;;;;24.24;54.38;100787.72;5050249;28;20208;-85
2022/08/03 07:00:33;;;;;;;2.25;2.05;;;;;;;24.45;53.44;100795.19;5052114;28;20204;-85
2022/08/03 07:02:59;;;;;;;2.88;1.95;;;;;;;24.67;52.68;100797.03;5041761;28;20761;-85
2022/08/03 07:05:26;;;;;;;2.92;2.00;;;;;;;24.91;51.95;100790.47;5040656;28;20216;-85
2022/08/03 07:07:58;;;;;;;2.10;1.90;;;;;;;25.11;51.82;100797.09;5051967;28;20215;-85
2022/08/03 07:10:25;;;;;;;2.88;2.00;;;;;;;25.29;50.43;100801.31;5051248;28;20213;-84
2022/08/03 07:12:51;;;;;;;3.40;2.25;;;;;;;25.45;49.37;100806.56;5051703;28;20235;-87
2022/08/03 07:15:18;;;;;;;2.30;2.10;;;;;;;25.58;48.46;100802.16;5048100;28;20215;-84
2022/08/03 07:17:44;;;;;;;2.88;1.80;;;;;;;25.72;47.95;100794.16;5045685;28;20212;-84
2022/08/03 07:20:14;;;;;;;3.72;2.25;;;;;;;25.85;47.73;100800.59;5044432;28;20212;-84
2022/08/03 07:22:40;;;;;;;1.90;1.80;;;;;;;26.01;47.62;100799.50;5041494;28;20225;-85
2022/08/03 07:25:11;;;;;;;2.28;2.08;;;;;;;26.19;47.52;100797.16;5049381;28;20682;-85
2022/08/03 07:27:37;;;;;;;3.35;1.83;;;;;;;26.39;46.89;100796.53;5047132;28;20239;-85
2022/08/03 07:30:08;;;;;;;3.05;1.75;;;;;;;26.57;46.44;100799.66;5032625;28;20276;-84
2022/08/03 07:32:34;;;;;;;2.53;1.80;;;;;;;26.73;45.87;100801.25;5031524;28;20222;-85
2022/08/03 07:35:01;;;;;;;2.50;2.00;;;;;;;26.90;45.27;100810.81;5028864;28;20202;-84
2022/08/03 07:37:28;;;;;;;1.90;1.80;;;;;;;27.00;44.48;100797.69;5026773;28;20210;-85
2022/08/03 07:39:57;;;;;;;2.40;1.83;;;;;;;27.10;44.20;100800.06;5027295;28;20600;-85
2022/08/03 07:42:25;;;;;;;2.22;1.80;;;;;;;27.20;44.43;100806.88;5029565;28;20320;-86
2022/08/03 07:44:55;;;;;;;2.67;1.67;;;;;;;27.34;43.45;100812.41;5025194;28;20215;-84
2022/08/03 07:47:27;;;;;;;2.13;1.40;;;;;;;27.45;43.29;100803.59;5032314;28;20311;-84
2022/08/03 07:49:53;;;;;;;2.13;1.70;;;;;;;27.58;43.24;100809.19;5029648;28;20210;-85
2022/08/03 07:55:08;;;;;;;1.50;1.40;;;;;;;27.96;42.75;100807.59;5021895;28;20291;-85
2022/08/03 07:57:36;;;;;;;3.17;1.38;;;;;;;28.13;42.57;100805.31;5026775;28;20202;-85
2022/08/03 08:00:05;;;;;;;2.05;1.67;;;;;;;28.26;41.83;100797.19;5022469;28;20210;-85
2022/08/03 08:02:31;;;;;;;2.78;1.85;;;;;;;28.41;42.04;100791.50;5027158;28;20322;-85
2022/08/03 08:04:57;;;;;;;5.28;1.70;;;;;;;28.57;41.89;100795.72;5031028;28;20213;-85
2022/08/03 08:07:25;;;;;;;2.30;1.83;;;;;;;28.73;41.50;100798.03;5034186;28;20206;-85
2022/08/03 08:09:51;;;;;;;4.53;1.60;;;;;;;28.90;41.02;100802.03;5034341;28;20618;-85
2022/08/03 08:12:18;;;;;;;1.95;1.52;;;;;;;29.00;40.37;100799.72;5026561;28;20252;-85
2022/08/03 08:14:46;;;;;;;2.65;1.55;;;;;;;29.10;40.51;100792.94;5028367;28;20238;-86
2022/08/03 08:17:12;;;;;;;7.28;1.65;;;;;;;29.19;40.42;100800.72;5035189;28;20209;-86
2022/08/03 08:19:39;;;;;;;1.73;1.55;;;;;;;29.32;39.91;100797.09;5029937;28;20220;-85
2022/08/03 08:22:06;;;;;;;4.18;1.45;;;;;;;29.45;39.98;100791.59;5031024;28;20237;-86
2022/08/03 08:24:32;;;;;;;1.88;1.40;;;;;;;29.58;39.77;100791.53;5029156;28;20438;-85
2022/08/03 08:27:00;;;;;;;1.75;1.60;;;;;;;29.73;39.26;100782.19;5028166;28;20194;-86
2022/08/03 08:29:26;;;;;;;2.22;1.50;;;;;;;29.81;38.88;100791.00;5029298;28;20215;-85
2022/08/03 08:31:54;;;;;;;1.60;1.50;;;;;;;29.88;38.87;100790.97;5025661;28;20698;-85
2022/08/03 08:34:21;;;;;;;2.45;1.33;;;;;;;29.96;38.32;100787.94;5027489;28;20202;-85
2022/08/03 08:36:47;;;;;;;2.40;1.50;;;;;;;30.05;38.35;100797.66;5025705;28;20209;-85
2022/08/03 08:39:14;;;;;;;2.22;1.67;;;;;;;30.13;37.96;100785.53;5025184;28;20199;-85
2022/08/03 08:41:40;;;;;;;3.05;1.50;;;;;;;30.23;38.39;100786.75;5025139;28;20222;-85
2022/08/03 08:44:09;;;;;;;1.88;1.50;;;;;;;30.34;37.90;100780.53;5030151;28;20285;-85
2022/08/03 08:46:38;;;;;;;2.15;1.40;;;;;;;30.46;38.23;100777.88;5027130;28;20206;-85
2022/08/03 08:49:09;;;;;;;3.40;1.42;;;;;;;30.60;37.49;100785.00;5024238;28;20206;-85
2022/08/03 08:51:40;;;;;;;3.03;1.27;;;;;;;30.72;37.76;100776.84;5027345;28;20237;-86
2022/08/03 08:54:08;;;;;;;7.05;1.70;;;;;;;30.82;37.58;100782.66;5031660;28;20240;-85
2022/08/03 08:56:35;;;;;;;1.90;1.50;;;;;;;30.92;37.15;100787.66;5031217;28;20210;-83
2022/08/03 08:59:02;;;;;;;1.48;1.13;;;;;;;31.03;37.29;100787.72;5026527;28;20202;-84
2022/08/03 09:01:29;;;;;;;2.15;1.30;;;;;;;31.15;36.89;100781.53;5023157;28;20219;-83
2022/08/03 09:03:55;;;;;;;2.30;1.38;;;;;;;31.27;36.96;100780.53;5029404;28;20212;-84
2022/08/03 09:06:24;;;;;;;1.35;1.25;;;;;;;31.39;36.29;100781.44;5026601;28;20212;-83
2022/08/03 09:08:51;;;;;;;2.92;1.20;;;;;;;31.50;35.53;100777.06;5025424;28;20206;-83
2022/08/03 09:11:22;;;;;;;3.55;1.13;;;;;;;31.59;35.32;100778.44;5024467;28;20223;-83
2022/08/03 09:13:48;;;;;;;2.55;1.42;;;;;;;31.64;35.42;100773.06;5027310;28;20286;-83
2022/08/03 09:16:16;;;;;;;5.47;1.70;;;;;;;31.70;35.02;100777.69;5025490;28;20225;-86
2022/08/03 09:18:45;;;;;;;3.20;1.50;;;;;;;31.77;34.96;100776.75;5028657;28;20212;-86
2022/08/03 09:21:16;;;;;;;3.40;1.45;;;;;;;31.82;34.93;100772.22;5024535;28;20223;-86
2022/08/03 09:23:49;;;;;;;1.88;1.40;;;;;;;31.92;34.92;100766.97;5027725;28;20209;-86
2022/08/03 09:26:24;;;;;;;1.80;1.60;;;;;;;32.03;34.88;100777.22;5032505;28;20213;-86
2022/08/03 09:28:59;;;;;;;2.05;1.80;;;;;;;32.12;34.61;100769.44;5028508;28;20647;-84
2022/08/03 09:31:34;;;;;;;3.45;1.80;;;;;;;32.18;34.24;100781.44;5030077;28;20232;-83
2022/08/03 09:34:03;;;;;;;3.45;1.70;;;;;;;32.21;34.15;100775.50;5032620;28;20649;-83
2022/08/03 09:36:35;;;;;;;3.78;1.63;;;;;;;32.22;34.10;100775.25;5033182;28;20244;-85
2022/08/03 09:39:05;;;;;;;2.25;1.67;;;;;;;32.29;34.49;100773.22;5035365;28;20206;-85
2022/08/03 09:41:31;;;;;;;2.33;1.95;;;;;;;32.40;34.43;100777.94;5033720;28;20228;-86
2022/08/03 09:43:58;;;;;;;1.80;1.67;;;;;;;32.50;34.09;100779.25;5027141;28;20210;-83
2022/08/03 09:46:27;;;;;;;1.98;1.77;;;;;;;32.57;33.91;100774.47;5018904;28;20206;-83
2022/08/03 09:48:54;;;;;;;2.85;1.70;;;;;;;32.65;33.72;100777.69;5029919;28;20256;-83
2022/08/03 09:51:24;;;;;;;1.70;1.60;;;;;;;32.69;33.36;100778.06;5027432;28;20236;-83
2022/08/03 09:53:51;;;;;;;2.42;2.03;;;;;;;32.74;33.54;100769.94;5032889;28;20197;-83
2022/08/03 09:56:19;;;;;;;9.45;2.53;;;;;;;32.78;33.64;100782.19;5027456;28;20202;-83
2022/08/03 09:58:47;;;;;;;2.08;1.90;;;;;;;32.81;33.44;100769.81;5021289;28;20205;-84
2022/08/03 10:01:14;;;;;;;1.88;1.60;;;;;;;32.82;33.52;100775.09;5025502;28;20228;-83
2022/08/03 10:03:40;;;;;;;2.88;1.52;;;;;;;32.87;33.52;100760.59;5027809;28;20575;-84
2022/08/03 10:06:19;;;;;;;2.85;1.83;;;;;;;32.92;33.56;100757.94;5024720;28;20210;-83
2022/08/03 10:08:45;;;;;;;2.67;1.73;;;;;;;32.94;33.49;100761.31;5023122;28;20717;-83
2022/08/03 10:11:12;;;;;;;3.92;1.85;;;;;;;32.99;33.21;100762.25;5022757;28;20235;-83
2022/08/03 10:13:40;;;;;;;2.38;1.85;;;;;;;33.02;33.00;100758.16;5022219;28;20799;-82
2022/08/03 10:16:07;;;;;;;1.92;1.67;;;;;;;33.04;32.73;100762.34;5025297;28;20594;-84
2022/08/03 10:18:33;;;;;;;1.88;1.40;;;;;;;33.10;32.62;100758.66;5019163;28;20766;-84
2022/08/03 10:21:04;;;;;;;1.70;1.60;;;;;;;33.21;32.47;100764.38;5019290;28;20332;-84
2022/08/03 10:23:33;;;;;;;2.25;1.80;;;;;;;33.31;32.39;100754.44;5017577;28;20203;-84
2022/08/03 10:26:25;;;;;;;2.05;1.90;;;;;;;33.41;31.79;100754.63;5019997;28;20217;-85
2022/08/03 10:32:05;;;;;;;3.42;1.63;;;;;;;33.52;31.72;100747.38;5017084;28;20234;-86
2022/08/03 10:34:48;;;;;;;2.20;1.70;;;;;;;33.59;31.74;100750.84;5018704;28;20210;-85
2022/08/03 10:37:37;;;;;;;2.58;1.67;;;;;;;33.63;31.20;100754.81;5017006;28;21075;-85
2022/08/03 10:40:14;;;;;;;1.67;1.58;;;;;;;33.65;31.00;100744.34;5020163;28;20275;-85
2022/08/03 10:42:54;;;;;;;2.03;1.80;;;;;;;33.72;31.01;100742.25;5023338;28;20760;-85
2022/08/03 10:45:26;;;;;;;3.65;1.45;;;;;;;33.77;30.57;100736.03;5023408;28;20289;-85
2022/08/03 10:47:55;;;;;;;1.60;1.50;;;;;;;33.82;30.59;100738.06;5017465;28;20222;-85
2022/08/03 10:50:24;;;;;;;2.50;1.63;;;;;;;33.84;30.52;100725.66;5017643;28;20737;-86
2022/08/03 10:52:55;;;;;;;1.75;1.60;;;;;;;33.88;30.91;100726.81;5016891;28;20232;-85
2022/08/03 10:58:36;;;;;;;2.53;1.75;;;;;;;33.86;30.39;100729.00;5014718;28;20903;-86
2022/08/03 11:01:05;;;;;;;2.08;1.98;;;;;;;33.90;30.25;100729.34;5019463;28;20203;-84
2022/08/03 11:03:32;;;;;;;2.08;1.83;;;;;;;33.90;30.76;100732.94;5022000;28;20208;-84
2022/08/03 11:06:15;;;;;;;2.42;1.70;;;;;;;33.94;30.37;100728.59;5019758;28;20796;-84
2022/08/03 11:08:42;;;;;;;1.60;1.50;;;;;;;33.99;30.07;100727.88;5021544;28;20210;-84
2022/08/03 11:11:28;;;;;;;1.50;1.40;;;;;;;34.06;30.26;100723.00;5021678;28;20222;-86
2022/08/03 11:14:00;;;;;;;3.38;1.77;;;;;;;34.11;30.09;100712.88;5020721;28;20588;-85
2022/08/03 11:16:29;;;;;;;1.83;1.73;;;;;;;34.17;29.62;100722.09;5026509;28;20202;-86
2022/08/03 11:18:57;;;;;;;1.85;1.75;;;;;;;34.20;29.74;100713.31;5018137;28;20206;-85
2022/08/03 11:21:52;;;;;;;1.80;1.70;;;;;;;34.23;29.95;100718.31;5019470;28;20575;-85
2022/08/03 11:24:57;;;;;;;1.85;1.48;;;;;;;34.26;29.75;100711.44;5020695;28;20209;-85
2022/08/03 11:27:25;;;;;;;1.80;1.60;;;;;;;34.24;29.52;100711.69;4998067;28;20222;-85
2022/08/03 11:29:56;;;;;;;2.00;1.55;;;;;;;34.27;29.64;100716.72;5021033;28;20594;-85
2022/08/03 11:32:53;;;;;;;3.55;1.70;;;;;;;34.27;29.69;100713.97;5023104;28;20649;-85
2022/08/03 11:35:21;;;;;;;2.88;1.92;;;;;;;34.29;29.64;100705.44;5028169;28;20210;-85
2022/08/03 11:38:08;;;;;;;1.90;1.80;;;;;;;34.33;30.37;100707.47;5025752;28;20244;-85
2022/08/03 11:40:37;;;;;;;1.88;1.77;;;;;;;34.38;29.85;100715.84;5024053;28;20206;-85
2022/08/03 11:43:05;;;;;;;1.83;1.73;;;;;;;34.38;29.22;100710.31;5022162;28;20228;-85
2022/08/03 11:45:31;;;;;;;1.95;1.85;;;;;;;34.37;29.66;100713.34;5024677;28;20205;-85
2022/08/03 11:48:12;;;;;;;1.55;1.45;;;;;;;34.35;29.66;100705.28;5026524;28;20592;-85